sensor_id;sensor_type;location;lat;lon;timestamp;temperature;humidity
9103;DHT22;4587;51.434;6.788;2023-12-20T00:01:45;8.50;99.90
9103;DHT22;4587;51.434;6.788;2023-12-20T00:04:11;8.50;99.90
9103;DHT22;4587;51.434;6.788;2023-12-20T00:06:36;8.50;99.90
9103;DHT22;4587;51.434;6.788;2023-12-20T00:09:02;8.50;99.90
9103;DHT22;4587;51.434;6.788;2023-12-20T00:11:28;8.50;99.90
9103;DHT22;4587;51.434;6.788;2023-12-20T00:13:53;8.50;99.90
9103;DHT22;4587;51.434;6.788;2023-12-20T00:16:19;8.50;99.90
9103;DHT22;4587;51.434;6.788;2023-12-20T00:18:44;8.30;99.90
9103;DHT22;4587;51.434;6.788;2023-12-20T00:21:10;8.20;99.90
9103;DHT22;4587;51.434;6.788;2023-12-20T00:23:35;8.20;99.90
9103;DHT22;4587;51.434;6.788;2023-12-20T00:26:01;8.20;99.90
9103;DHT22;4587;51.434;6.788;2023-12-20T00:28:27;8.10;99.90
9103;DHT22;4587;51.434;6.788;2023-12-20T00:30:52;8.10;99.90
9103;DHT22;4587;51.434;6.788;2023-12-20T00:33:18;8.10;99.90
9103;DHT22;4587;51.434;6.788;2023-12-20T00:35:44;8.10;99.90
9103;DHT22;4587;51.434;6.788;2023-12-20T00:38:09;8.00;99.90
9103;DHT22;4587;51.434;6.788;2023-12-20T00:40:36;8.00;99.90
9103;DHT22;4587;51.434;6.788;2023-12-20T00:43:02;8.00;99.90
9103;DHT22;4587;51.434;6.788;2023-12-20T00:45:27;8.10;99.90
9103;DHT22;4587;51.434;6.788;2023-12-20T00:47:53;8.10;99.90
9103;DHT22;4587;51.434;6.788;2023-12-20T00:50:18;8.10;99.90
9103;DHT22;4587;51.434;6.788;2023-12-20T00:52:44;8.10;99.90
9103;DHT22;4587;51.434;6.788;2023-12-20T00:55:09;8.10;99.90
9103;DHT22;4587;51.434;6.788;2023-12-20T00:57:35;8.10;99.90
9103;DHT22;4587;51.434;6.788;2023-12-20T01:00:01;8.20;99.90
9103;DHT22;4587;51.434;6.788;2023-12-20T01:02:26;8.10;99.90
9103;DHT22;4587;51.434;6.788;2023-12-20T01:04:52;8.10;99.90
9103;DHT22;4587;51.434;6.788;2023-12-20T01:07:17;8.20;99.90
9103;DHT22;4587;51.434;6.788;2023-12-20T01:09:44;8.10;99.90
9103;DHT22;4587;51.434;6.788;2023-12-20T01:12:09;8.20;99.90
9103;DHT22;4587;51.434;6.788;2023-12-20T01:14:35;8.10;99.90
9103;DHT22;4587;51.434;6.788;2023-12-20T01:17:01;8.10;99.90
9103;DHT22;4587;51.434;6.788;2023-12-20T01:19:27;8.10;99.90
9103;DHT22;4587;51.434;6.788;2023-12-20T01:21:53;8.20;99.90
9103;DHT22;4587;51.434;6.788;2023-12-20T01:24:19;8.20;99.90
9103;DHT22;4587;51.434;6.788;2023-12-20T01:26:44;8.20;99.90
9103;DHT22;4587;51.434;6.788;2023-12-20T01:29:10;8.30;99.90
9103;DHT22;4587;51.434;6.788;2023-12-20T01:31:35;8.20;99.90
9103;DHT22;4587;51.434;6.788;2023-12-20T01:34:01;8.20;99.90
9103;DHT22;4587;51.434;6.788;2023-12-20T01:36:26;8.20;99.90
9103;DHT22;4587;51.434;6.788;2023-12-20T01:38:52;8.30;99.90
9103;DHT22;4587;51.434;6.788;2023-12-20T01:41:17;8.20;99.90
9103;DHT22;4587;51.434;6.788;2023-12-20T01:43:43;8.10;99.90
9103;DHT22;4587;51.434;6.788;2023-12-20T01:46:09;8.00;99.90
9103;DHT22;4587;51.434;6.788;2023-12-20T01:48:34;7.90;99.90
9103;DHT22;4587;51.434;6.788;2023-12-20T01:51:02;7.90;99.90
9103;DHT22;4587;51.434;6.788;2023-12-20T01:53:28;7.70;99.90
9103;DHT22;4587;51.434;6.788;2023-12-20T01:55:55;7.60;99.90
9103;DHT22;4587;51.434;6.788;2023-12-20T01:58:22;7.60;99.90
9103;DHT22;4587;51.434;6.788;2023-12-20T02:00:48;7.50;99.90
9103;DHT22;4587;51.434;6.788;2023-12-20T02:03:14;7.50;99.90
9103;DHT22;4587;51.434;6.788;2023-12-20T02:05:40;7.50;99.90
9103;DHT22;4587;51.434;6.788;2023-12-20T02:08:06;7.60;99.90
9103;DHT22;4587;51.434;6.788;2023-12-20T02:10:32;7.60;99.90
9103;DHT22;4587;51.434;6.788;2023-12-20T02:12:58;7.50;99.90
9103;DHT22;4587;51.434;6.788;2023-12-20T02:15:24;7.50;99.90
9103;DHT22;4587;51.434;6.788;2023-12-20T02:17:49;7.50;99.90
9103;DHT22;4587;51.434;6.788;2023-12-20T02:20:15;7.50;99.90
9103;DHT22;4587;51.434;6.788;2023-12-20T02:22:41;7.50;99.90
9103;DHT22;4587;51.434;6.788;2023-12-20T02:25:07;7.50;99.90
9103;DHT22;4587;51.434;6.788;2023-12-20T02:27:33;7.60;99.90
9103;DHT22;4587;51.434;6.788;2023-12-20T02:29:59;7.60;99.90
9103;DHT22;4587;51.434;6.788;2023-12-20T02:32:25;7.50;99.90
9103;DHT22;4587;51.434;6.788;2023-12-20T02:34:55;7.40;99.90
9103;DHT22;4587;51.434;6.788;2023-12-20T02:37:21;7.40;99.90
9103;DHT22;4587;51.434;6.788;2023-12-20T02:39:46;7.30;99.90
9103;DHT22;4587;51.434;6.788;2023-12-20T02:42:12;7.30;99.90
9103;DHT22;4587;51.434;6.788;2023-12-20T02:44:37;7.20;99.90
9103;DHT22;4587;51.434;6.788;2023-12-20T02:47:03;7.20;99.90
9103;DHT22;4587;51.434;6.788;2023-12-20T02:49:30;7.20;99.90
9103;DHT22;4587;51.434;6.788;2023-12-20T02:51:55;7.10;99.90
9103;DHT22;4587;51.434;6.788;2023-12-20T02:54:21;7.00;99.90
9103;DHT22;4587;51.434;6.788;2023-12-20T02:56:47;7.00;99.90
9103;DHT22;4587;51.434;6.788;2023-12-20T02:59:17;7.00;99.90
9103;DHT22;4587;51.434;6.788;2023-12-20T03:01:45;7.00;99.90
9103;DHT22;4587;51.434;6.788;2023-12-20T03:04:12;6.90;99.90
9103;DHT22;4587;51.434;6.788;2023-12-20T03:06:38;6.90;99.90
9103;DHT22;4587;51.434;6.788;2023-12-20T03:09:04;6.90;99.90
9103;DHT22;4587;51.434;6.788;2023-12-20T03:11:30;6.90;99.90
9103;DHT22;4587;51.434;6.788;2023-12-20T03:13:56;6.90;99.90
9103;DHT22;4587;51.434;6.788;2023-12-20T03:16:22;6.90;99.90
9103;DHT22;4587;51.434;6.788;2023-12-20T03:18:47;6.90;99.90
9103;DHT22;4587;51.434;6.788;2023-12-20T03:21:13;6.90;99.90
9103;DHT22;4587;51.434;6.788;2023-12-20T03:23:39;7.10;99.90
9103;DHT22;4587;51.434;6.788;2023-12-20T03:26:07;7.10;99.90
9103;DHT22;4587;51.434;6.788;2023-12-20T03:28:33;7.10;99.90
9103;DHT22;4587;51.434;6.788;2023-12-20T03:30:59;7.10;99.90
9103;DHT22;4587;51.434;6.788;2023-12-20T03:33:24;7.10;99.90
9103;DHT22;4587;51.434;6.788;2023-12-20T03:35:50;7.20;99.90
9103;DHT22;4587;51.434;6.788;2023-12-20T03:38:15;7.10;99.90
9103;DHT22;4587;51.434;6.788;2023-12-20T03:40:41;7.10;99.90
9103;DHT22;4587;51.434;6.788;2023-12-20T03:43:07;7.10;99.90
9103;DHT22;4587;51.434;6.788;2023-12-20T03:45:33;7.00;99.90
9103;DHT22;4587;51.434;6.788;2023-12-20T03:47:59;7.00;99.90
9103;DHT22;4587;51.434;6.788;2023-12-20T03:50:24;6.90;99.90
9103;DHT22;4587;51.434;6.788;2023-12-20T03:52:50;6.90;99.90
9103;DHT22;4587;51.434;6.788;2023-12-20T03:55:16;6.80;99.90
9103;DHT22;4587;51.434;6.788;2023-12-20T03:57:41;6.80;99.90
9103;DHT22;4587;51.434;6.788;2023-12-20T04:00:07;6.90;99.90
9103;DHT22;4587;51.434;6.788;2023-12-20T04:02:40;6.80;99.90
9103;DHT22;4587;51.434;6.788;2023-12-20T04:05:06;6.80;99.90
9103;DHT22;4587;51.434;6.788;2023-12-20T04:07:32;6.80;99.90
9103;DHT22;4587;51.434;6.788;2023-12-20T04:09:58;6.70;99.90
9103;DHT22;4587;51.434;6.788;2023-12-20T04:12:24;6.60;99.90
9103;DHT22;4587;51.434;6.788;2023-12-20T04:14:49;6.70;99.90
9103;DHT22;4587;51.434;6.788;2023-12-20T04:17:15;6.70;99.90
9103;DHT22;4587;51.434;6.788;2023-12-20T04:19:42;6.70;99.90
9103;DHT22;4587;51.434;6.788;2023-12-20T04:22:08;6.70;99.90
9103;DHT22;4587;51.434;6.788;2023-12-20T04:24:34;6.80;99.90
9103;DHT22;4587;51.434;6.788;2023-12-20T04:26:59;6.90;99.90
9103;DHT22;4587;51.434;6.788;2023-12-20T04:29:25;6.90;99.90
9103;DHT22;4587;51.434;6.788;2023-12-20T04:31:51;6.90;99.90
9103;DHT22;4587;51.434;6.788;2023-12-20T04:34:17;6.90;99.90
9103;DHT22;4587;51.434;6.788;2023-12-20T04:36:43;6.90;99.90
9103;DHT22;4587;51.434;6.788;2023-12-20T04:39:09;6.90;99.90
9103;DHT22;4587;51.434;6.788;2023-12-20T04:41:35;6.90;99.90
9103;DHT22;4587;51.434;6.788;2023-12-20T04:44:00;6.90;99.90
9103;DHT22;4587;51.434;6.788;2023-12-20T04:46:26;7.00;99.90
9103;DHT22;4587;51.434;6.788;2023-12-20T04:48:52;7.10;99.90
9103;DHT22;4587;51.434;6.788;2023-12-20T04:51:17;7.10;99.90
9103;DHT22;4587;51.434;6.788;2023-12-20T04:53:43;7.00;99.90
9103;DHT22;4587;51.434;6.788;2023-12-20T04:56:08;7.00;99.90
9103;DHT22;4587;51.434;6.788;2023-12-20T04:58:34;7.00;99.90
9103;DHT22;4587;51.434;6.788;2023-12-20T05:00:59;6.90;99.90
9103;DHT22;4587;51.434;6.788;2023-12-20T05:03:25;6.90;99.90
9103;DHT22;4587;51.434;6.788;2023-12-20T05:05:50;6.90;99.90
9103;DHT22;4587;51.434;6.788;2023-12-20T05:08:16;6.90;99.90
9103;DHT22;4587;51.434;6.788;2023-12-20T05:10:41;6.80;99.90
9103;DHT22;4587;51.434;6.788;2023-12-20T05:13:07;6.80;99.90
9103;DHT22;4587;51.434;6.788;2023-12-20T05:15:33;6.80;99.90
9103;DHT22;4587;51.434;6.788;2023-12-20T05:17:58;6.80;99.90
9103;DHT22;4587;51.434;6.788;2023-12-20T05:20:24;6.80;99.90
9103;DHT22;4587;51.434;6.788;2023-12-20T05:22:49;6.90;99.90
9103;DHT22;4587;51.434;6.788;2023-12-20T05:25:15;6.80;99.90
9103;DHT22;4587;51.434;6.788;2023-12-20T05:27:41;6.80;99.90
9103;DHT22;4587;51.434;6.788;2023-12-20T05:30:07;6.80;99.90
9103;DHT22;4587;51.434;6.788;2023-12-20T05:32:32;6.90;99.90
9103;DHT22;4587;51.434;6.788;2023-12-20T05:34:58;7.00;99.90
9103;DHT22;4587;51.434;6.788;2023-12-20T05:37:23;7.00;99.90
9103;DHT22;4587;51.434;6.788;2023-12-20T05:39:49;7.00;99.90
9103;DHT22;4587;51.434;6.788;2023-12-20T05:42:14;7.00;99.90
9103;DHT22;4587;51.434;6.788;2023-12-20T05:44:40;7.00;99.90
9103;DHT22;4587;51.434;6.788;2023-12-20T05:47:05;7.00;99.90
9103;DHT22;4587;51.434;6.788;2023-12-20T05:49:31;7.00;99.90
9103;DHT22;4587;51.434;6.788;2023-12-20T05:51:57;7.00;99.90
9103;DHT22;4587;51.434;6.788;2023-12-20T05:54:22;7.00;99.90
9103;DHT22;4587;51.434;6.788;2023-12-20T05:56:48;7.00;99.90
9103;DHT22;4587;51.434;6.788;2023-12-20T05:59:14;7.00;99.90
9103;DHT22;4587;51.434;6.788;2023-12-20T06:01:39;7.10;99.90
9103;DHT22;4587;51.434;6.788;2023-12-20T06:04:05;7.10;99.90
9103;DHT22;4587;51.434;6.788;2023-12-20T06:06:30;7.10;99.90
9103;DHT22;4587;51.434;6.788;2023-12-20T06:08:56;7.10;99.90
9103;DHT22;4587;51.434;6.788;2023-12-20T06:11:22;7.10;99.90
9103;DHT22;4587;51.434;6.788;2023-12-20T06:13:47;7.20;99.90
9103;DHT22;4587;51.434;6.788;2023-12-20T06:16:14;7.30;99.90
9103;DHT22;4587;51.434;6.788;2023-12-20T06:18:40;7.20;99.90
9103;DHT22;4587;51.434;6.788;2023-12-20T06:21:06;7.20;99.90
9103;DHT22;4587;51.434;6.788;2023-12-20T06:23:32;7.30;99.90
9103;DHT22;4587;51.434;6.788;2023-12-20T06:25:58;7.30;99.90
9103;DHT22;4587;51.434;6.788;2023-12-20T06:28:23;7.30;99.90
9103;DHT22;4587;51.434;6.788;2023-12-20T06:30:49;7.30;99.90
9103;DHT22;4587;51.434;6.788;2023-12-20T06:33:15;7.30;99.90
9103;DHT22;4587;51.434;6.788;2023-12-20T06:35:41;7.20;99.90
9103;DHT22;4587;51.434;6.788;2023-12-20T06:38:06;7.30;99.90
9103;DHT22;4587;51.434;6.788;2023-12-20T06:40:32;7.40;99.90
9103;DHT22;4587;51.434;6.788;2023-12-20T06:42:57;7.40;99.90
9103;DHT22;4587;51.434;6.788;2023-12-20T06:45:24;7.30;99.90
9103;DHT22;4587;51.434;6.788;2023-12-20T06:47:50;7.30;99.90
9103;DHT22;4587;51.434;6.788;2023-12-20T06:50:15;7.30;99.90
9103;DHT22;4587;51.434;6.788;2023-12-20T06:52:41;7.40;99.90
9103;DHT22;4587;51.434;6.788;2023-12-20T06:55:07;7.40;99.90
9103;DHT22;4587;51.434;6.788;2023-12-20T06:57:33;7.30;99.90
9103;DHT22;4587;51.434;6.788;2023-12-20T06:59:58;7.30;99.90
9103;DHT22;4587;51.434;6.788;2023-12-20T07:02:24;7.30;99.90
9103;DHT22;4587;51.434;6.788;2023-12-20T07:04:49;7.40;99.90
9103;DHT22;4587;51.434;6.788;2023-12-20T07:07:15;7.30;99.90
9103;DHT22;4587;51.434;6.788;2023-12-20T07:09:40;7.30;99.90
9103;DHT22;4587;51.434;6.788;2023-12-20T07:12:08;7.30;99.90
9103;DHT22;4587;51.434;6.788;2023-12-20T07:14:34;7.30;99.90
9103;DHT22;4587;51.434;6.788;2023-12-20T07:16:59;7.40;99.90
9103;DHT22;4587;51.434;6.788;2023-12-20T07:19:25;7.40;99.90
9103;DHT22;4587;51.434;6.788;2023-12-20T07:21:50;7.40;99.90
9103;DHT22;4587;51.434;6.788;2023-12-20T07:24:16;7.40;99.90
9103;DHT22;4587;51.434;6.788;2023-12-20T07:26:41;7.40;99.90
9103;DHT22;4587;51.434;6.788;2023-12-20T07:29:08;7.50;99.90
9103;DHT22;4587;51.434;6.788;2023-12-20T07:31:34;7.50;99.90
9103;DHT22;4587;51.434;6.788;2023-12-20T07:34:00;7.50;99.90
9103;DHT22;4587;51.434;6.788;2023-12-20T07:36:25;7.50;99.90
9103;DHT22;4587;51.434;6.788;2023-12-20T07:38:51;7.40;99.90
9103;DHT22;4587;51.434;6.788;2023-12-20T07:41:16;7.50;99.90
9103;DHT22;4587;51.434;6.788;2023-12-20T07:43:42;7.50;99.90
9103;DHT22;4587;51.434;6.788;2023-12-20T07:46:08;7.50;99.90
9103;DHT22;4587;51.434;6.788;2023-12-20T07:48:37;7.70;99.90
9103;DHT22;4587;51.434;6.788;2023-12-20T07:51:04;7.60;99.90
9103;DHT22;4587;51.434;6.788;2023-12-20T07:53:29;7.60;99.90
9103;DHT22;4587;51.434;6.788;2023-12-20T07:55:55;7.60;99.90
9103;DHT22;4587;51.434;6.788;2023-12-20T07:58:21;7.60;99.90
9103;DHT22;4587;51.434;6.788;2023-12-20T08:00:47;7.60;99.90
9103;DHT22;4587;51.434;6.788;2023-12-20T08:03:12;7.70;99.90
9103;DHT22;4587;51.434;6.788;2023-12-20T08:05:38;7.70;99.90
9103;DHT22;4587;51.434;6.788;2023-12-20T08:08:06;7.70;99.90
9103;DHT22;4587;51.434;6.788;2023-12-20T08:10:31;7.70;99.90
9103;DHT22;4587;51.434;6.788;2023-12-20T08:12:57;7.60;99.90
9103;DHT22;4587;51.434;6.788;2023-12-20T08:15:23;7.70;99.90
9103;DHT22;4587;51.434;6.788;2023-12-20T08:17:49;7.70;99.90
9103;DHT22;4587;51.434;6.788;2023-12-20T08:20:16;7.70;99.90
9103;DHT22;4587;51.434;6.788;2023-12-20T08:22:42;7.80;99.90
9103;DHT22;4587;51.434;6.788;2023-12-20T08:25:08;7.80;99.90
9103;DHT22;4587;51.434;6.788;2023-12-20T08:27:36;7.80;99.90
9103;DHT22;4587;51.434;6.788;2023-12-20T08:30:02;7.80;99.90
9103;DHT22;4587;51.434;6.788;2023-12-20T08:32:28;7.80;99.90
9103;DHT22;4587;51.434;6.788;2023-12-20T08:34:54;7.70;99.90
9103;DHT22;4587;51.434;6.788;2023-12-20T08:37:20;7.70;99.90
9103;DHT22;4587;51.434;6.788;2023-12-20T08:39:45;7.70;99.90
9103;DHT22;4587;51.434;6.788;2023-12-20T08:42:11;7.70;99.90
9103;DHT22;4587;51.434;6.788;2023-12-20T08:44:36;7.80;99.90
9103;DHT22;4587;51.434;6.788;2023-12-20T08:47:02;7.80;99.90
9103;DHT22;4587;51.434;6.788;2023-12-20T08:49:27;7.80;99.90
9103;DHT22;4587;51.434;6.788;2023-12-20T08:51:53;7.80;99.90
9103;DHT22;4587;51.434;6.788;2023-12-20T08:54:19;7.80;99.90
9103;DHT22;4587;51.434;6.788;2023-12-20T08:56:45;7.80;99.90
9103;DHT22;4587;51.434;6.788;2023-12-20T08:59:11;7.80;99.90
9103;DHT22;4587;51.434;6.788;2023-12-20T09:01:37;7.80;99.90
9103;DHT22;4587;51.434;6.788;2023-12-20T09:04:03;7.70;99.90
9103;DHT22;4587;51.434;6.788;2023-12-20T09:06:28;7.80;99.90
9103;DHT22;4587;51.434;6.788;2023-12-20T09:08:54;7.80;99.90
9103;DHT22;4587;51.434;6.788;2023-12-20T09:11:19;7.80;99.90
9103;DHT22;4587;51.434;6.788;2023-12-20T09:13:45;7.80;99.90
9103;DHT22;4587;51.434;6.788;2023-12-20T09:16:10;7.90;99.90
9103;DHT22;4587;51.434;6.788;2023-12-20T09:18:36;7.80;99.90
9103;DHT22;4587;51.434;6.788;2023-12-20T09:21:02;7.80;99.90
9103;DHT22;4587;51.434;6.788;2023-12-20T09:23:27;7.90;99.90
9103;DHT22;4587;51.434;6.788;2023-12-20T09:25:53;7.90;99.90
9103;DHT22;4587;51.434;6.788;2023-12-20T09:28:19;7.90;99.90
9103;DHT22;4587;51.434;6.788;2023-12-20T09:30:44;7.90;99.90
9103;DHT22;4587;51.434;6.788;2023-12-20T09:33:11;7.80;99.90
9103;DHT22;4587;51.434;6.788;2023-12-20T09:35:37;7.90;99.90
9103;DHT22;4587;51.434;6.788;2023-12-20T09:38:02;7.80;99.90
9103;DHT22;4587;51.434;6.788;2023-12-20T09:40:29;7.80;99.90
9103;DHT22;4587;51.434;6.788;2023-12-20T09:43:11;7.80;99.90
9103;DHT22;4587;51.434;6.788;2023-12-20T09:45:38;7.80;99.90
9103;DHT22;4587;51.434;6.788;2023-12-20T09:48:06;7.80;99.90
9103;DHT22;4587;51.434;6.788;2023-12-20T09:50:32;7.80;99.90
9103;DHT22;4587;51.434;6.788;2023-12-20T09:53:01;7.90;99.90
9103;DHT22;4587;51.434;6.788;2023-12-20T09:55:28;7.90;99.90
9103;DHT22;4587;51.434;6.788;2023-12-20T09:57:54;7.90;99.90
9103;DHT22;4587;51.434;6.788;2023-12-20T10:00:19;7.90;99.90
9103;DHT22;4587;51.434;6.788;2023-12-20T10:02:57;8.00;99.90
9103;DHT22;4587;51.434;6.788;2023-12-20T10:05:33;8.00;99.90
9103;DHT22;4587;51.434;6.788;2023-12-20T10:07:59;8.00;99.90
9103;DHT22;4587;51.434;6.788;2023-12-20T10:10:26;8.00;99.90
9103;DHT22;4587;51.434;6.788;2023-12-20T10:13:06;8.10;99.90
9103;DHT22;4587;51.434;6.788;2023-12-20T10:15:37;8.20;99.90
9103;DHT22;4587;51.434;6.788;2023-12-20T10:18:03;8.20;99.90
9103;DHT22;4587;51.434;6.788;2023-12-20T10:20:30;8.10;99.90
9103;DHT22;4587;51.434;6.788;2023-12-20T10:22:56;8.20;99.90
9103;DHT22;4587;51.434;6.788;2023-12-20T10:25:22;8.20;99.90
9103;DHT22;4587;51.434;6.788;2023-12-20T10:27:49;8.20;99.90
9103;DHT22;4587;51.434;6.788;2023-12-20T10:30:15;8.20;99.90
9103;DHT22;4587;51.434;6.788;2023-12-20T10:32:41;8.30;99.90
9103;DHT22;4587;51.434;6.788;2023-12-20T10:35:07;8.30;99.90
9103;DHT22;4587;51.434;6.788;2023-12-20T10:37:37;8.30;99.90
9103;DHT22;4587;51.434;6.788;2023-12-20T10:40:04;8.30;99.90
9103;DHT22;4587;51.434;6.788;2023-12-20T10:42:31;8.30;99.90
9103;DHT22;4587;51.434;6.788;2023-12-20T10:44:59;8.20;99.90
9103;DHT22;4587;51.434;6.788;2023-12-20T10:47:25;8.30;99.90
9103;DHT22;4587;51.434;6.788;2023-12-20T10:49:52;8.30;99.90
9103;DHT22;4587;51.434;6.788;2023-12-20T10:52:19;8.30;99.90
9103;DHT22;4587;51.434;6.788;2023-12-20T10:54:48;8.30;99.90
9103;DHT22;4587;51.434;6.788;2023-12-20T10:57:13;8.30;99.90
9103;DHT22;4587;51.434;6.788;2023-12-20T10:59:43;8.40;99.90
9103;DHT22;4587;51.434;6.788;2023-12-20T11:02:11;8.40;99.90
9103;DHT22;4587;51.434;6.788;2023-12-20T11:05:10;8.40;99.90
9103;DHT22;4587;51.434;6.788;2023-12-20T11:07:46;8.40;99.90
9103;DHT22;4587;51.434;6.788;2023-12-20T11:10:21;8.40;99.90
9103;DHT22;4587;51.434;6.788;2023-12-20T11:13:22;8.40;99.90
9103;DHT22;4587;51.434;6.788;2023-12-20T11:15:49;8.40;99.90
9103;DHT22;4587;51.434;6.788;2023-12-20T11:18:16;8.40;99.90
9103;DHT22;4587;51.434;6.788;2023-12-20T11:20:42;8.40;99.90
9103;DHT22;4587;51.434;6.788;2023-12-20T11:23:09;8.50;99.90
9103;DHT22;4587;51.434;6.788;2023-12-20T11:25:55;8.60;99.90
9103;DHT22;4587;51.434;6.788;2023-12-20T11:28:25;8.60;99.90
9103;DHT22;4587;51.434;6.788;2023-12-20T11:30:52;8.70;99.90
9103;DHT22;4587;51.434;6.788;2023-12-20T11:33:26;8.70;99.90
9103;DHT22;4587;51.434;6.788;2023-12-20T11:35:55;8.70;99.90
9103;DHT22;4587;51.434;6.788;2023-12-20T11:38:21;8.70;99.90
9103;DHT22;4587;51.434;6.788;2023-12-20T11:40:49;8.70;99.90
9103;DHT22;4587;51.434;6.788;2023-12-20T11:43:38;8.70;99.90
9103;DHT22;4587;51.434;6.788;2023-12-20T11:46:08;8.60;99.90
9103;DHT22;4587;51.434;6.788;2023-12-20T11:48:38;8.60;99.90
9103;DHT22;4587;51.434;6.788;2023-12-20T11:51:12;8.60;99.90
9103;DHT22;4587;51.434;6.788;2023-12-20T11:53:38;8.60;99.90
9103;DHT22;4587;51.434;6.788;2023-12-20T11:56:07;8.60;99.90
9103;DHT22;4587;51.434;6.788;2023-12-20T11:58:33;8.60;99.90
9103;DHT22;4587;51.434;6.788;2023-12-20T12:00:59;8.60;99.90
9103;DHT22;4587;51.434;6.788;2023-12-20T12:03:25;8.60;99.90
9103;DHT22;4587;51.434;6.788;2023-12-20T12:05:51;8.60;99.90
9103;DHT22;4587;51.434;6.788;2023-12-20T12:08:17;8.60;99.90
9103;DHT22;4587;51.434;6.788;2023-12-20T12:10:45;8.60;99.90
9103;DHT22;4587;51.434;6.788;2023-12-20T12:13:11;8.60;99.90
9103;DHT22;4587;51.434;6.788;2023-12-20T12:15:37;8.60;99.90
9103;DHT22;4587;51.434;6.788;2023-12-20T12:18:03;8.70;99.90
9103;DHT22;4587;51.434;6.788;2023-12-20T12:20:29;8.70;99.90
9103;DHT22;4587;51.434;6.788;2023-12-20T12:23:04;8.70;99.90
9103;DHT22;4587;51.434;6.788;2023-12-20T12:25:31;8.60;99.90
9103;DHT22;4587;51.434;6.788;2023-12-20T12:27:58;8.70;99.90
9103;DHT22;4587;51.434;6.788;2023-12-20T12:30:24;8.60;99.90
9103;DHT22;4587;51.434;6.788;2023-12-20T12:32:53;8.60;99.90
9103;DHT22;4587;51.434;6.788;2023-12-20T12:35:20;8.70;99.90
9103;DHT22;4587;51.434;6.788;2023-12-20T12:37:46;8.70;99.90
9103;DHT22;4587;51.434;6.788;2023-12-20T12:40:13;8.70;99.90
9103;DHT22;4587;51.434;6.788;2023-12-20T12:42:39;8.70;99.90
9103;DHT22;4587;51.434;6.788;2023-12-20T12:45:06;8.70;99.90
9103;DHT22;4587;51.434;6.788;2023-12-20T12:47:33;8.70;99.90
9103;DHT22;4587;51.434;6.788;2023-12-20T12:49:58;8.70;99.90
9103;DHT22;4587;51.434;6.788;2023-12-20T12:52:24;8.70;99.90
9103;DHT22;4587;51.434;6.788;2023-12-20T12:54:49;8.70;99.90
9103;DHT22;4587;51.434;6.788;2023-12-20T12:57:15;8.60;99.90
9103;DHT22;4587;51.434;6.788;2023-12-20T12:59:43;8.60;99.90
9103;DHT22;4587;51.434;6.788;2023-12-20T13:02:09;8.60;99.90
9103;DHT22;4587;51.434;6.788;2023-12-20T13:04:35;8.50;99.90
9103;DHT22;4587;51.434;6.788;2023-12-20T13:07:00;8.60;99.90
9103;DHT22;4587;51.434;6.788;2023-12-20T13:09:26;8.50;99.90
9103;DHT22;4587;51.434;6.788;2023-12-20T13:11:51;8.50;99.90
9103;DHT22;4587;51.434;6.788;2023-12-20T13:14:17;8.50;99.90
9103;DHT22;4587;51.434;6.788;2023-12-20T13:16:42;8.50;99.90
9103;DHT22;4587;51.434;6.788;2023-12-20T13:19:10;8.50;99.90
9103;DHT22;4587;51.434;6.788;2023-12-20T13:21:35;8.50;99.90
9103;DHT22;4587;51.434;6.788;2023-12-20T13:24:01;8.40;99.90
9103;DHT22;4587;51.434;6.788;2023-12-20T13:26:27;8.40;99.90
9103;DHT22;4587;51.434;6.788;2023-12-20T13:28:54;8.40;99.90
9103;DHT22;4587;51.434;6.788;2023-12-20T13:31:19;8.30;99.90
9103;DHT22;4587;51.434;6.788;2023-12-20T13:33:46;8.30;99.90
9103;DHT22;4587;51.434;6.788;2023-12-20T13:36:12;8.30;99.90
9103;DHT22;4587;51.434;6.788;2023-12-20T13:38:38;8.20;99.90
9103;DHT22;4587;51.434;6.788;2023-12-20T13:41:04;8.20;99.90
9103;DHT22;4587;51.434;6.788;2023-12-20T13:43:31;8.20;99.90
9103;DHT22;4587;51.434;6.788;2023-12-20T13:45:58;8.20;99.90
9103;DHT22;4587;51.434;6.788;2023-12-20T13:48:23;8.20;99.90
9103;DHT22;4587;51.434;6.788;2023-12-20T13:50:49;8.20;99.90
9103;DHT22;4587;51.434;6.788;2023-12-20T13:53:15;8.20;99.90
9103;DHT22;4587;51.434;6.788;2023-12-20T13:55:40;8.30;99.90
9103;DHT22;4587;51.434;6.788;2023-12-20T13:58:06;8.20;99.90
9103;DHT22;4587;51.434;6.788;2023-12-20T14:00:31;8.30;99.90
9103;DHT22;4587;51.434;6.788;2023-12-20T14:02:57;8.30;99.90
9103;DHT22;4587;51.434;6.788;2023-12-20T14:05:24;8.30;99.90
9103;DHT22;4587;51.434;6.788;2023-12-20T14:07:49;8.20;99.90
9103;DHT22;4587;51.434;6.788;2023-12-20T14:10:16;8.20;99.90
9103;DHT22;4587;51.434;6.788;2023-12-20T14:12:41;8.20;99.90
9103;DHT22;4587;51.434;6.788;2023-12-20T14:15:07;8.30;99.90
9103;DHT22;4587;51.434;6.788;2023-12-20T14:17:37;8.30;99.90
9103;DHT22;4587;51.434;6.788;2023-12-20T14:20:05;8.20;99.90
9103;DHT22;4587;51.434;6.788;2023-12-20T14:22:32;8.20;99.90
9103;DHT22;4587;51.434;6.788;2023-12-20T14:24:57;8.20;99.90
9103;DHT22;4587;51.434;6.788;2023-12-20T14:27:23;8.20;99.90
9103;DHT22;4587;51.434;6.788;2023-12-20T14:29:50;8.30;99.90
9103;DHT22;4587;51.434;6.788;2023-12-20T14:32:15;8.30;99.90
9103;DHT22;4587;51.434;6.788;2023-12-20T14:34:41;8.40;99.90
9103;DHT22;4587;51.434;6.788;2023-12-20T14:37:07;8.40;99.90
9103;DHT22;4587;51.434;6.788;2023-12-20T14:39:32;8.40;99.90
9103;DHT22;4587;51.434;6.788;2023-12-20T14:41:58;8.40;99.90
9103;DHT22;4587;51.434;6.788;2023-12-20T14:44:24;8.30;99.90
9103;DHT22;4587;51.434;6.788;2023-12-20T14:46:50;8.40;99.90
9103;DHT22;4587;51.434;6.788;2023-12-20T14:49:16;8.30;99.90
9103;DHT22;4587;51.434;6.788;2023-12-20T14:51:44;8.30;99.90
9103;DHT22;4587;51.434;6.788;2023-12-20T14:54:09;8.30;99.90
9103;DHT22;4587;51.434;6.788;2023-12-20T14:56:35;8.30;99.90
9103;DHT22;4587;51.434;6.788;2023-12-20T14:59:01;8.40;99.90
9103;DHT22;4587;51.434;6.788;2023-12-20T15:01:27;8.40;99.90
9103;DHT22;4587;51.434;6.788;2023-12-20T15:03:52;8.40;99.90
9103;DHT22;4587;51.434;6.788;2023-12-20T15:06:18;8.40;99.90
9103;DHT22;4587;51.434;6.788;2023-12-20T15:08:45;8.40;99.90
9103;DHT22;4587;51.434;6.788;2023-12-20T15:11:11;8.40;99.90
9103;DHT22;4587;51.434;6.788;2023-12-20T15:13:37;8.50;99.90
9103;DHT22;4587;51.434;6.788;2023-12-20T15:16:03;8.50;99.90
9103;DHT22;4587;51.434;6.788;2023-12-20T15:18:30;8.50;99.90
9103;DHT22;4587;51.434;6.788;2023-12-20T15:20:57;8.40;99.90
9103;DHT22;4587;51.434;6.788;2023-12-20T15:23:23;8.40;99.90
9103;DHT22;4587;51.434;6.788;2023-12-20T15:25:51;8.40;99.90
9103;DHT22;4587;51.434;6.788;2023-12-20T15:28:17;8.40;99.90
9103;DHT22;4587;51.434;6.788;2023-12-20T15:30:43;8.50;99.90
9103;DHT22;4587;51.434;6.788;2023-12-20T15:33:08;8.50;99.90
9103;DHT22;4587;51.434;6.788;2023-12-20T15:35:34;8.40;99.90
9103;DHT22;4587;51.434;6.788;2023-12-20T15:37:59;8.40;99.90
9103;DHT22;4587;51.434;6.788;2023-12-20T15:40:25;8.40;99.90
9103;DHT22;4587;51.434;6.788;2023-12-20T15:42:50;8.30;99.90
9103;DHT22;4587;51.434;6.788;2023-12-20T15:45:16;8.40;99.90
9103;DHT22;4587;51.434;6.788;2023-12-20T15:47:41;8.40;99.90
9103;DHT22;4587;51.434;6.788;2023-12-20T15:50:07;8.50;99.90
9103;DHT22;4587;51.434;6.788;2023-12-20T15:52:33;8.40;99.90
9103;DHT22;4587;51.434;6.788;2023-12-20T15:54:59;8.50;99.90
9103;DHT22;4587;51.434;6.788;2023-12-20T15:57:24;8.40;99.90
9103;DHT22;4587;51.434;6.788;2023-12-20T15:59:50;8.40;99.90
9103;DHT22;4587;51.434;6.788;2023-12-20T16:02:16;8.40;99.90
9103;DHT22;4587;51.434;6.788;2023-12-20T16:04:42;8.30;99.90
9103;DHT22;4587;51.434;6.788;2023-12-20T16:07:08;8.40;99.90
9103;DHT22;4587;51.434;6.788;2023-12-20T16:09:33;8.40;99.90
9103;DHT22;4587;51.434;6.788;2023-12-20T16:11:58;8.40;99.90